Time;durP1;ratioP1;P1;durP2;ratioP2;P2;SDS_P1;SDS_P2;PMS_P1;PMS_P2;Temp;Humidity;BMP_temperature;BMP_pressure;BME280_temperature;BME280_humidity;BME280_pressure;Samples;Min_cycle;Max_cycle;Signal;HPM_P1;HPM_P2
2022/03/23 00:01:19;;;;;;;122.03;69.38;;;9.60;61.90;;;;;;4989505;28;20479;-75
2022/03/23 00:03:46;;;;;;;111.18;62.70;;;9.60;62.10;;;;;;4983879;28;20034;-75
2022/03/23 00:06:13;;;;;;;104.78;58.88;;;9.50;62.40;;;;;;4986568;28;20053;-75
2022/03/23 00:08:40;;;;;;;91.25;54.47;;;9.50;62.40;;;;;;4996387;28;20030;-75
2022/03/23 00:11:05;;;;;;;104.50;57.83;;;9.50;62.60;;;;;;4995706;28;20030;-75
2022/03/23 00:13:32;;;;;;;106.28;60.22;;;9.40;62.80;;;;;;4989549;28;20104;-75
2022/03/23 00:15:59;;;;;;;104.65;58.38;;;9.30;63.10;;;;;;5000128;28;20527;-75
2022/03/23 00:18:25;;;;;;;101.97;58.67;;;9.20;63.30;;;;;;4994904;28;20030;-75
2022/03/23 00:20:51;;;;;;;101.90;61.72;;;9.10;63.50;;;;;;4996669;28;20036;-76
2022/03/23 00:23:17;;;;;;;109.03;62.47;;;9.10;63.90;;;;;;4999421;28;20026;-75
2022/03/23 00:25:43;;;;;;;108.80;61.30;;;9.00;64.00;;;;;;4986817;28;20060;-74
2022/03/23 00:28:09;;;;;;;117.95;64.97;;;9.00;64.40;;;;;;4998232;28;20029;-73
2022/03/23 00:30:35;;;;;;;119.95;66.60;;;8.90;64.50;;;;;;4998682;28;20045;-74
2022/03/23 00:33:05;;;;;;;115.43;62.80;;;8.80;64.80;;;;;;5000972;28;20049;-74
2022/03/23 00:35:31;;;;;;;114.82;64.28;;;8.80;65.00;;;;;;4995761;28;20042;-74
2022/03/23 00:38:00;;;;;;;113.15;63.50;;;8.70;65.20;;;;;;5001822;28;20040;-74
2022/03/23 00:40:30;;;;;;;112.00;62.50;;;8.60;65.50;;;;;;5005282;28;20592;-74
2022/03/23 00:43:01;;;;;;;116.22;64.38;;;8.60;65.80;;;;;;5001774;28;20416;-74
2022/03/23 00:45:28;;;;;;;128.50;70.38;;;8.60;66.10;;;;;;4995176;28;20050;-74
2022/03/23 00:47:55;;;;;;;137.63;73.72;;;8.60;66.50;;;;;;5001277;28;20466;-74
2022/03/23 00:50:20;;;;;;;166.73;87.10;;;8.50;66.90;;;;;;4997719;28;20046;-73
2022/03/23 00:52:47;;;;;;;167.80;88.88;;;8.50;66.90;;;;;;5003130;28;20456;-74
2022/03/23 00:55:15;;;;;;;161.98;85.47;;;8.40;67.20;;;;;;5001256;28;20038;-73
2022/03/23 00:57:41;;;;;;;169.85;89.50;;;8.40;67.10;;;;;;5005169;28;20043;-74
2022/03/23 01:00:12;;;;;;;167.52;87.13;;;8.40;67.30;;;;;;5004537;28;20046;-74
2022/03/23 01:02:38;;;;;;;182.52;94.32;;;8.30;67.50;;;;;;5000235;28;20465;-74
2022/03/23 01:05:05;;;;;;;177.40;90.55;;;8.20;67.60;;;;;;5000811;28;20042;-74
2022/03/23 01:07:30;;;;;;;166.82;87.70;;;8.20;67.80;;;;;;4995856;28;20040;-72
2022/03/23 01:09:56;;;;;;;167.57;85.18;;;8.20;68.10;;;;;;4999731;28;20034;-73
2022/03/23 01:12:22;;;;;;;179.50;91.72;;;8.10;68.20;;;;;;4993477;28;20486;-74
2022/03/23 01:14:48;;;;;;;158.05;81.78;;;8.20;68.50;;;;;;4992051;28;20363;-74
2022/03/23 01:17:13;;;;;;;136.00;75.00;;;8.10;68.40;;;;;;4984583;28;20037;-73
2022/03/23 01:19:40;;;;;;;129.50;68.55;;;8.10;68.40;;;;;;5005224;28;20050;-74
2022/03/23 01:22:06;;;;;;;122.60;66.88;;;8.10;68.60;;;;;;4998061;28;20552;-74
2022/03/23 01:24:32;;;;;;;115.10;64.03;;;8.10;68.50;;;;;;4990245;28;20046;-74
2022/03/23 01:26:58;;;;;;;103.78;61.78;;;8.10;68.40;;;;;;4996483;28;20045;-74
2022/03/23 01:29:23;;;;;;;109.38;59.10;;;8.10;68.50;;;;;;4999324;28;20462;-74
2022/03/23 01:31:49;;;;;;;102.40;59.15;;;8.10;68.50;;;;;;4998273;28;20033;-74
2022/03/23 01:34:15;;;;;;;108.07;58.90;;;8.00;67.90;;;;;;5001883;28;20058;-75
2022/03/23 01:36:41;;;;;;;100.63;57.90;;;8.00;68.10;;;;;;5004769;28;20034;-74
2022/03/23 01:39:07;;;;;;;98.50;55.92;;;7.90;68.40;;;;;;5001934;28;20041;-74
2022/03/23 01:41:37;;;;;;;87.22;54.28;;;7.90;68.70;;;;;;5008330;28;20026;-75
2022/03/23 01:44:23;;;;;;;84.60;50.22;;;7.80;68.90;;;;;;5000809;28;20045;-75
2022/03/23 01:47:03;;;;;;;77.85;47.08;;;7.80;69.20;;;;;;5002407;28;20070;-75
2022/03/23 01:49:29;;;;;;;65.43;41.15;;;7.80;69.30;;;;;;5001394;28;20485;-74
2022/03/23 01:51:55;;;;;;;62.67;42.00;;;7.80;69.30;;;;;;5003596;28;20046;-74
2022/03/23 01:54:21;;;;;;;65.20;40.83;;;7.70;69.40;;;;;;4997359;28;20038;-74
2022/03/23 01:56:49;;;;;;;61.55;40.60;;;7.70;69.50;;;;;;5002502;28;20057;-73
2022/03/23 01:59:15;;;;;;;57.13;38.30;;;7.60;69.40;;;;;;5003306;28;20037;-73
2022/03/23 02:01:41;;;;;;;50.67;34.50;;;7.60;69.60;;;;;;4994147;28;20480;-74
2022/03/23 02:04:08;;;;;;;50.83;34.42;;;7.60;69.80;;;;;;4979382;28;20069;-73
2022/03/23 02:06:33;;;;;;;47.15;33.92;;;7.50;69.90;;;;;;5001584;28;20042;-73
2022/03/23 02:08:59;;;;;;;50.90;33.90;;;7.50;70.00;;;;;;5004008;28;20041;-73
2022/03/23 02:11:25;;;;;;;49.72;35.50;;;7.50;69.90;;;;;;5001946;28;20140;-73
2022/03/23 02:13:53;;;;;;;49.17;34.75;;;7.50;70.00;;;;;;4996683;28;20045;-74
2022/03/23 02:16:19;;;;;;;50.10;34.10;;;7.40;70.10;;;;;;5001475;28;20045;-74
2022/03/23 02:18:45;;;;;;;52.42;34.88;;;7.30;70.20;;;;;;5003413;28;20022;-74
2022/03/23 02:21:14;;;;;;;51.83;34.53;;;7.40;70.30;;;;;;5001997;28;20037;-74
2022/03/23 02:23:39;;;;;;;47.38;32.15;;;7.30;70.40;;;;;;4996279;28;20038;-74
2022/03/23 02:26:06;;;;;;;48.55;32.10;;;7.30;70.50;;;;;;4997535;28;20216;-75
2022/03/23 02:28:32;;;;;;;47.75;34.00;;;7.30;70.60;;;;;;4983416;28;20026;-74
2022/03/23 02:30:58;;;;;;;47.05;34.45;;;7.20;70.80;;;;;;4998992;28;20450;-74
2022/03/23 02:33:24;;;;;;;48.05;35.47;;;7.20;70.80;;;;;;4999755;28;20492;-74
2022/03/23 02:35:49;;;;;;;46.53;33.17;;;7.20;70.70;;;;;;5002164;28;21332;-74
2022/03/23 02:38:19;;;;;;;51.75;33.58;;;7.10;70.90;;;;;;4994999;28;20727;-73
2022/03/23 02:40:45;;;;;;;42.05;31.92;;;7.10;71.00;;;;;;4998154;28;20109;-73
2022/03/23 02:43:10;;;;;;;47.58;33.05;;;7.10;71.10;;;;;;5002179;28;20560;-73
2022/03/23 02:45:36;;;;;;;48.13;33.90;;;7.10;70.90;;;;;;5012926;28;20307;-74
2022/03/23 02:48:04;;;;;;;48.65;34.40;;;7.10;70.90;;;;;;5010479;28;20092;-74
2022/03/23 02:50:31;;;;;;;48.20;33.63;;;7.10;71.00;;;;;;5009699;28;20459;-74
2022/03/23 03:01:54;;;;;;;47.90;32.08;;;7.00;70.80;;;;;;5002885;28;20813;-74
2022/03/23 03:04:23;;;;;;;47.33;33.88;;;7.10;70.40;;;;;;4989715;28;20038;-74
2022/03/23 03:06:49;;;;;;;50.25;34.40;;;7.00;70.20;;;;;;4998994;28;20128;-74
2022/03/23 03:09:15;;;;;;;53.10;34.08;;;7.00;70.20;;;;;;4996780;28;20041;-74
2022/03/23 03:11:45;;;;;;;54.97;34.60;;;7.00;70.40;;;;;;5002511;28;20041;-73
2022/03/23 03:14:11;;;;;;;58.03;35.35;;;6.90;70.60;;;;;;4999021;28;20029;-73
2022/03/23 03:16:37;;;;;;;53.53;34.80;;;6.90;71.10;;;;;;5000410;28;20463;-75
2022/03/23 03:19:11;;;;;;;53.35;36.60;;;6.80;71.20;;;;;;4995518;28;20095;-74
2022/03/23 03:21:37;;;;;;;51.95;35.28;;;6.80;71.30;;;;;;4993350;28;20827;-73
2022/03/23 03:24:03;;;;;;;50.65;33.60;;;6.70;71.40;;;;;;4997572;28;20486;-74
2022/03/23 03:26:32;;;;;;;52.97;35.20;;;6.70;71.50;;;;;;4979344;28;20046;-74
2022/03/23 03:28:58;;;;;;;54.40;35.38;;;6.70;72.00;;;;;;4999406;28;20492;-74
2022/03/23 03:31:23;;;;;;;50.38;33.65;;;6.60;72.10;;;;;;5006759;28;20038;-73
2022/03/23 03:33:49;;;;;;;53.10;35.05;;;6.60;72.50;;;;;;4998223;28;20022;-74
2022/03/23 03:36:15;;;;;;;53.17;35.35;;;6.60;72.60;;;;;;4979256;28;20034;-74
2022/03/23 03:38:42;;;;;;;51.38;36.88;;;6.50;72.80;;;;;;4995723;28;20501;-73
2022/03/23 03:41:09;;;;;;;55.65;36.75;;;6.50;72.90;;;;;;5001648;28;20033;-74
2022/03/23 03:43:35;;;;;;;53.55;35.17;;;6.40;72.90;;;;;;5002248;28;20029;-74
2022/03/23 03:46:02;;;;;;;56.17;35.22;;;6.40;73.00;;;;;;5000525;28;20044;-74
2022/03/23 03:48:28;;;;;;;48.22;34.05;;;6.20;73.20;;;;;;4998370;28;20030;-74
2022/03/23 03:50:54;;;;;;;52.80;34.30;;;6.30;73.30;;;;;;5001182;28;20038;-74
2022/03/23 03:53:20;;;;;;;56.13;35.95;;;6.20;73.60;;;;;;4972163;28;20540;-73
2022/03/23 03:55:46;;;;;;;48.53;34.13;;;6.20;73.50;;;;;;5000566;28;20389;-73
2022/03/23 03:58:17;;;;;;;59.35;37.40;;;6.20;73.60;;;;;;4983963;28;20021;-74
2022/03/23 04:00:43;;;;;;;49.00;33.75;;;6.20;73.50;;;;;;4998785;28;20247;-74
2022/03/23 04:03:09;;;;;;;51.15;32.50;;;6.20;73.50;;;;;;5002444;28;20030;-73
2022/03/23 04:05:34;;;;;;;51.05;32.92;;;6.10;73.60;;;;;;4991284;28;20034;-73
2022/03/23 04:08:00;;;;;;;49.35;32.90;;;6.10;73.80;;;;;;4997776;28;20029;-74
2022/03/23 04:10:26;;;;;;;47.30;31.30;;;6.10;74.00;;;;;;5001296;28;20077;-73
2022/03/23 04:12:53;;;;;;;46.13;31.10;;;6.20;73.70;;;;;;5000223;28;20429;-73
2022/03/23 04:15:20;;;;;;;46.42;32.42;;;6.10;73.60;;;;;;5001016;28;20474;-73
2022/03/23 04:17:47;;;;;;;46.05;31.73;;;6.10;73.50;;;;;;4998797;28;20048;-74
2022/03/23 04:20:13;;;;;;;42.63;30.58;;;6.10;73.50;;;;;;4997014;28;20025;-73
2022/03/23 04:22:38;;;;;;;46.38;32.20;;;6.00;73.50;;;;;;5001077;28;20045;-74
2022/03/23 04:25:09;;;;;;;41.83;31.27;;;6.00;73.60;;;;;;4997558;28;20399;-74
2022/03/23 04:27:47;;;;;;;44.20;30.23;;;6.00;73.70;;;;;;5003266;28;20489;-74
2022/03/23 04:30:15;;;;;;;42.08;30.65;;;5.90;73.80;;;;;;5008288;28;20046;-73
2022/03/23 04:32:41;;;;;;;46.92;30.77;;;6.00;73.50;;;;;;5006729;28;20469;-74
2022/03/23 04:35:07;;;;;;;46.75;31.77;;;5.90;73.60;;;;;;5006194;28;20036;-73
2022/03/23 04:37:33;;;;;;;48.05;32.25;;;5.90;73.50;;;;;;4981756;28;20387;-73
2022/03/23 04:40:00;;;;;;;43.47;30.10;;;5.80;73.70;;;;;;4999054;28;20387;-74
2022/03/23 04:42:25;;;;;;;46.83;31.92;;;5.90;73.90;;;;;;4996604;28;20102;-74
2022/03/23 04:44:51;;;;;;;43.47;29.73;;;5.90;73.90;;;;;;4999646;28;20827;-73
2022/03/23 04:47:17;;;;;;;39.47;27.80;;;5.90;73.90;;;;;;5002806;28;20038;-73
2022/03/23 04:49:42;;;;;;;41.63;29.80;;;5.80;73.80;;;;;;4987071;28;20120;-73
2022/03/23 04:52:08;;;;;;;47.00;29.40;;;5.90;73.60;;;;;;5001475;28;20053;-74
2022/03/23 04:54:34;;;;;;;45.15;31.17;;;5.80;73.50;;;;;;5000239;28;20030;-74
2022/03/23 04:56:59;;;;;;;44.97;31.40;;;5.80;73.40;;;;;;5000300;28;20038;-74
2022/03/23 04:59:26;;;;;;;49.35;31.13;;;5.80;73.50;;;;;;5004008;28;20030;-73
2022/03/23 05:01:52;;;;;;;42.05;29.10;;;5.80;73.50;;;;;;5003239;28;20089;-74
2022/03/23 05:04:18;;;;;;;44.95;30.67;;;5.70;73.70;;;;;;5001627;28;20034;-73
2022/03/23 05:06:43;;;;;;;47.95;30.98;;;5.60;73.90;;;;;;5002512;28;20066;-73
2022/03/23 05:09:09;;;;;;;43.75;30.58;;;5.70;74.10;;;;;;4999370;28;20034;-73
2022/03/23 05:11:34;;;;;;;46.75;30.83;;;5.60;74.10;;;;;;5001508;28;20038;-74
2022/03/23 05:14:00;;;;;;;44.53;30.67;;;5.60;74.20;;;;;;5001246;28;20120;-74
2022/03/23 05:16:26;;;;;;;49.20;29.98;;;5.50;74.50;;;;;;5000049;28;20034;-73
2022/03/23 05:18:51;;;;;;;46.38;30.58;;;5.50;74.80;;;;;;5011345;28;20381;-74
2022/03/23 05:21:17;;;;;;;44.65;29.75;;;5.50;74.90;;;;;;5013011;28;20061;-75
2022/03/23 05:23:43;;;;;;;44.97;30.50;;;5.50;74.70;;;;;;5014800;28;20057;-74
2022/03/23 05:26:08;;;;;;;45.83;30.58;;;5.50;74.80;;;;;;5001606;28;20045;-75
2022/03/23 05:28:34;;;;;;;42.88;29.38;;;5.40;74.80;;;;;;4996903;28;20038;-74
2022/03/23 05:31:00;;;;;;;42.42;30.38;;;5.40;74.80;;;;;;4998021;28;20559;-74
2022/03/23 05:33:25;;;;;;;45.45;29.05;;;5.50;74.90;;;;;;4994143;28;20095;-73
2022/03/23 05:35:51;;;;;;;41.95;29.52;;;5.50;74.90;;;;;;4997738;28;20570;-74
2022/03/23 05:38:16;;;;;;;44.05;28.98;;;5.40;74.60;;;;;;4990489;28;20041;-74
2022/03/23 05:40:42;;;;;;;43.60;28.83;;;5.40;74.50;;;;;;4995316;28;20038;-73
2022/03/23 05:43:08;;;;;;;43.88;29.55;;;5.40;74.70;;;;;;4983843;28;20129;-74
2022/03/23 05:45:35;;;;;;;46.00;29.08;;;5.30;74.90;;;;;;4996002;28;20050;-74
2022/03/23 05:48:01;;;;;;;49.03;30.38;;;5.40;75.10;;;;;;5001125;28;20040;-74
2022/03/23 05:50:27;;;;;;;41.42;29.83;;;5.30;75.20;;;;;;5002980;28;20030;-74
2022/03/23 05:52:52;;;;;;;42.35;29.33;;;5.40;75.20;;;;;;4999820;28;20465;-75
2022/03/23 05:55:18;;;;;;;42.42;29.33;;;5.40;75.40;;;;;;4997991;28;20049;-74
2022/03/23 05:57:44;;;;;;;42.42;28.20;;;5.50;75.40;;;;;;4997336;28;20033;-74
2022/03/23 06:00:10;;;;;;;52.95;34.33;;;5.60;75.20;;;;;;4989086;28;20047;-74
2022/03/23 06:02:36;;;;;;;46.92;32.08;;;5.60;74.90;;;;;;4999151;28;20084;-74
2022/03/23 06:05:01;;;;;;;50.28;32.45;;;5.60;74.60;;;;;;4988847;28;20583;-75
2022/03/23 06:07:27;;;;;;;44.45;31.67;;;5.60;74.50;;;;;;4992702;28;20030;-74
2022/03/23 06:09:53;;;;;;;45.63;32.40;;;5.70;74.50;;;;;;4992383;28;20034;-74
2022/03/23 06:12:19;;;;;;;52.65;36.88;;;5.60;74.50;;;;;;4996323;28;20073;-75
2022/03/23 06:14:44;;;;;;;51.90;36.13;;;5.70;74.60;;;;;;4989548;28;20038;-74
2022/03/23 06:17:11;;;;;;;46.33;32.80;;;5.70;74.50;;;;;;4997319;28;20041;-74
2022/03/23 06:19:36;;;;;;;45.90;31.48;;;5.70;74.50;;;;;;4991158;28;20065;-74
2022/03/23 06:22:03;;;;;;;41.40;30.67;;;5.80;74.50;;;;;;4993063;28;20072;-76
2022/03/23 06:24:29;;;;;;;44.00;30.85;;;5.90;74.20;;;;;;4993056;28;20477;-74
2022/03/23 06:26:54;;;;;;;46.50;32.55;;;6.00;74.10;;;;;;4991899;28;20033;-74
2022/03/23 06:29:20;;;;;;;41.53;29.55;;;6.10;73.90;;;;;;4993767;28;20060;-74
2022/03/23 06:31:45;;;;;;;43.22;30.77;;;6.10;73.70;;;;;;4999364;28;20283;-76
2022/03/23 06:34:11;;;;;;;40.03;28.58;;;6.10;73.50;;;;;;5002097;28;20505;-76
2022/03/23 06:36:37;;;;;;;43.72;30.58;;;6.20;73.40;;;;;;5001763;28;20108;-73
2022/03/23 06:39:04;;;;;;;46.05;29.63;;;6.20;73.20;;;;;;4986816;28;20081;-73
2022/03/23 06:41:30;;;;;;;43.20;31.15;;;6.40;73.40;;;;;;4991088;28;20056;-72
2022/03/23 06:43:58;;;;;;;42.35;30.15;;;7.00;72.50;;;;;;4995336;28;20042;-71
2022/03/23 06:46:24;;;;;;;40.80;29.05;;;7.70;70.60;;;;;;5000174;28;20050;-71
2022/03/23 06:48:50;;;;;;;49.58;30.20;;;8.30;68.80;;;;;;4995548;28;20400;-73
2022/03/23 06:51:16;;;;;;;41.65;29.17;;;8.80;66.40;;;;;;4994543;28;20489;-71
2022/03/23 06:53:42;;;;;;;36.92;27.75;;;9.20;64.80;;;;;;4979018;28;20050;-71
2022/03/23 06:56:09;;;;;;;39.40;29.50;;;9.50;63.80;;;;;;4988712;28;20482;-73
2022/03/23 06:58:34;;;;;;;37.10;26.58;;;9.60;63.30;;;;;;4987311;28;20048;-71
2022/03/23 07:01:00;;;;;;;43.63;29.23;;;9.40;63.40;;;;;;4988323;28;20042;-72
2022/03/23 07:03:26;;;;;;;38.72;29.13;;;9.20;64.50;;;;;;4993558;28;20050;-73
2022/03/23 07:05:52;;;;;;;40.25;29.30;;;8.90;65.10;;;;;;4996740;28;20129;-72
2022/03/23 07:11:03;;;;;;;49.78;35.10;;;8.60;66.70;;;;;;5000703;28;20167;-73
2022/03/23 07:13:29;;;;;;;43.17;32.95;;;8.40;66.70;;;;;;5000434;28;20034;-72
2022/03/23 07:15:55;;;;;;;53.83;33.50;;;8.40;67.10;;;;;;5003484;28;20045;-72
2022/03/23 07:18:20;;;;;;;45.33;34.45;;;8.40;67.40;;;;;;4996810;28;20192;-72
2022/03/23 07:20:46;;;;;;;47.95;35.13;;;8.30;67.70;;;;;;4984317;28;20031;-74
2022/03/23 07:23:12;;;;;;;46.78;33.92;;;8.40;67.70;;;;;;4997057;28;20029;-73
2022/03/23 07:25:37;;;;;;;48.17;31.95;;;8.50;67.80;;;;;;4994964;28;20042;-73
2022/03/23 07:28:04;;;;;;;43.08;30.88;;;8.60;67.60;;;;;;4999857;28;20482;-73
2022/03/23 07:30:33;;;;;;;39.15;28.90;;;8.70;67.70;;;;;;4994998;28;20051;-73
2022/03/23 07:33:02;;;;;;;44.38;32.47;;;8.90;67.60;;;;;;4998041;28;20363;-73
2022/03/23 07:35:28;;;;;;;57.08;32.38;;;9.00;67.30;;;;;;4997682;28;20095;-74
2022/03/23 07:37:54;;;;;;;48.50;32.50;;;9.10;67.50;;;;;;4978793;28;20042;-73
2022/03/23 07:40:19;;;;;;;47.67;33.88;;;9.20;67.10;;;;;;5001044;28;20065;-73
2022/03/23 07:42:45;;;;;;;48.13;31.52;;;9.40;67.00;;;;;;4996203;28;20038;-73
2022/03/23 07:45:11;;;;;;;50.38;31.15;;;9.60;66.50;;;;;;4979724;28;20426;-72
2022/03/23 07:47:38;;;;;;;47.00;31.35;;;9.70;66.10;;;;;;4997225;28;20421;-72
2022/03/23 07:50:04;;;;;;;63.03;35.90;;;9.90;65.50;;;;;;5000581;28;20042;-73
2022/03/23 07:52:30;;;;;;;58.60;33.90;;;10.10;64.80;;;;;;5002457;28;20484;-74
2022/03/23 07:54:56;;;;;;;53.45;33.72;;;10.30;64.80;;;;;;5001277;28;20050;-72
2022/03/23 07:57:21;;;;;;;54.03;35.15;;;10.60;64.60;;;;;;4996104;28;20445;-73
2022/03/23 07:59:47;;;;;;;57.05;35.08;;;10.80;63.80;;;;;;4991979;28;20030;-72
2022/03/23 08:02:13;;;;;;;55.38;34.53;;;11.10;62.50;;;;;;4998535;28;20454;-73
2022/03/23 08:04:38;;;;;;;53.83;34.20;;;11.30;62.90;;;;;;4997061;28;20038;-72
2022/03/23 08:07:04;;;;;;;55.10;35.17;;;11.60;62.20;;;;;;4996468;28;20042;-73
2022/03/23 08:09:31;;;;;;;54.35;33.25;;;11.80;60.70;;;;;;4995647;28;20076;-75
2022/03/23 08:11:57;;;;;;;52.35;33.67;;;12.10;59.80;;;;;;4987656;28;20035;-76
2022/03/23 08:14:23;;;;;;;46.50;31.50;;;12.40;58.40;;;;;;4991504;28;20117;-75
2022/03/23 08:16:49;;;;;;;48.53;30.98;;;12.60;57.30;;;;;;4997546;28;20642;-73
2022/03/23 08:19:15;;;;;;;53.53;31.80;;;12.90;57.60;;;;;;4992890;28;20117;-73
2022/03/23 08:21:42;;;;;;;51.38;32.20;;;13.10;55.70;;;;;;4990443;28;20436;-73
2022/03/23 08:24:08;;;;;;;45.08;31.40;;;13.20;55.40;;;;;;4989337;28;20034;-75
2022/03/23 08:26:34;;;;;;;48.80;31.25;;;13.40;54.30;;;;;;4993139;28;20042;-73
2022/03/23 08:28:59;;;;;;;48.58;33.10;;;13.60;53.30;;;;;;4986530;28;20030;-74
2022/03/23 08:31:25;;;;;;;48.25;31.48;;;13.70;53.70;;;;;;4992055;28;20050;-75
2022/03/23 08:33:51;;;;;;;51.50;32.15;;;13.90;52.50;;;;;;4991325;28;20089;-75
2022/03/23 08:36:16;;;;;;;58.10;31.75;;;14.10;52.00;;;;;;4989872;28;20031;-73
2022/03/23 08:38:42;;;;;;;51.42;33.20;;;14.20;51.90;;;;;;4990264;28;20347;-73
2022/03/23 08:41:08;;;;;;;53.70;34.30;;;14.40;51.20;;;;;;4985256;28;20044;-72
2022/03/23 08:43:34;;;;;;;51.88;33.38;;;14.60;50.70;;;;;;5001892;28;20033;-76
2022/03/23 08:46:00;;;;;;;50.85;33.13;;;14.70;51.30;;;;;;5002801;28;20042;-72
2022/03/23 08:48:26;;;;;;;51.63;32.13;;;14.80;50.20;;;;;;5001161;28;20038;-73
2022/03/23 08:50:52;;;;;;;56.45;33.33;;;14.90;48.40;;;;;;4999650;28;20784;-72
2022/03/23 08:53:18;;;;;;;50.95;31.67;;;15.10;48.20;;;;;;4998644;28;20069;-72
2022/03/23 08:55:44;;;;;;;47.15;30.98;;;15.10;47.50;;;;;;4989446;28;20045;-74
2022/03/23 08:58:10;;;;;;;49.83;32.28;;;15.30;47.50;;;;;;4984886;28;20486;-75
2022/03/23 09:00:36;;;;;;;46.13;31.85;;;15.40;47.00;;;;;;4995084;28;20034;-74
2022/03/23 09:03:03;;;;;;;53.25;34.22;;;15.60;46.40;;;;;;4993916;28;20497;-74
2022/03/23 09:05:28;;;;;;;53.00;31.17;;;15.80;46.40;;;;;;4997528;28;20062;-72
2022/03/23 09:07:54;;;;;;;42.67;29.70;;;15.80;46.10;;;;;;4996705;28;20049;-73
2022/03/23 09:10:20;;;;;;;49.65;32.35;;;16.00;46.00;;;;;;4986922;28;20478;-73
2022/03/23 09:12:46;;;;;;;52.70;33.35;;;16.10;45.60;;;;;;5002887;28;20061;-71
2022/03/23 09:15:14;;;;;;;50.22;31.70;;;16.10;45.60;;;;;;4991360;28;20445;-73
2022/03/23 09:17:41;;;;;;;49.97;32.47;;;16.30;45.60;;;;;;4993424;28;20043;-73
2022/03/23 09:20:10;;;;;;;50.90;32.65;;;16.50;44.90;;;;;;5002539;28;20073;-74
2022/03/23 09:22:35;;;;;;;48.08;31.48;;;16.60;44.20;;;;;;4998544;28;20129;-75
2022/03/23 09:25:06;;;;;;;48.35;31.30;;;16.80;43.60;;;;;;4994715;28;20038;-74
2022/03/23 09:27:37;;;;;;;47.45;30.85;;;16.90;43.50;;;;;;4997773;28;20165;-72
2022/03/23 09:30:07;;;;;;;44.88;30.73;;;17.00;43.30;;;;;;4999276;28;20085;-73
2022/03/23 09:32:33;;;;;;;42.70;28.77;;;17.10;43.70;;;;;;4997251;28;20045;-77
2022/03/23 09:34:59;;;;;;;48.15;30.33;;;17.20;43.90;;;;;;4994728;28;20038;-72
2022/03/23 09:40:09;;;;;;;47.90;31.45;;;17.40;43.10;;;;;;4998574;28;20492;-73
2022/03/23 09:42:35;;;;;;;49.35;30.55;;;17.60;43.10;;;;;;5001036;28;20536;-74
2022/03/23 09:45:02;;;;;;;43.40;29.77;;;17.60;43.10;;;;;;4994451;28;20041;-72
2022/03/23 09:47:27;;;;;;;51.83;31.25;;;17.80;42.40;;;;;;5000246;28;20034;-72
2022/03/23 09:49:53;;;;;;;45.42;30.13;;;18.00;42.10;;;;;;4995640;28;20398;-70
2022/03/23 09:52:19;;;;;;;43.10;29.42;;;18.00;41.90;;;;;;4999173;28;20470;-73
2022/03/23 09:54:45;;;;;;;43.15;28.05;;;18.10;41.40;;;;;;4998560;28;20046;-72
2022/03/23 09:57:13;;;;;;;39.67;27.98;;;18.10;41.10;;;;;;5000015;28;20033;-71
2022/03/23 09:59:40;;;;;;;39.83;27.77;;;18.30;41.20;;;;;;4984207;28;20414;-71
2022/03/23 10:02:05;;;;;;;45.13;29.85;;;18.10;40.70;;;;;;5004786;28;20046;-71
2022/03/23 10:04:49;;;;;;;40.85;28.05;;;18.20;41.10;;;;;;4999160;28;20513;-71
2022/03/23 10:07:36;;;;;;;39.30;27.00;;;18.30;40.80;;;;;;5006124;28;20045;-71
2022/03/23 10:10:19;;;;;;;39.42;27.45;;;18.60;40.40;;;;;;4997860;28;20294;-70
2022/03/23 10:13:17;;;;;;;34.70;25.73;;;18.60;39.60;;;;;;4998926;28;20042;-70
2022/03/23 10:16:19;;;;;;;37.70;26.45;;;18.70;39.50;;;;;;5002359;28;20042;-70
2022/03/23 10:18:56;;;;;;;37.72;27.23;;;18.90;39.40;;;;;;4995131;28;20573;-72
2022/03/23 10:21:24;;;;;;;45.90;28.02;;;18.90;39.30;;;;;;5003263;28;20034;-72
2022/03/23 10:24:10;;;;;;;36.47;26.63;;;18.90;39.70;;;;;;4991233;28;20034;-71
2022/03/23 10:26:37;;;;;;;39.50;27.33;;;19.00;39.50;;;;;;4980821;28;20050;-70
2022/03/23 10:29:07;;;;;;;41.55;27.92;;;19.10;39.40;;;;;;4997603;28;20045;-71
2022/03/23 10:31:33;;;;;;;39.40;28.27;;;19.20;39.30;;;;;;4993606;28;20163;-73
2022/03/23 10:34:10;;;;;;;41.25;27.15;;;19.20;38.80;;;;;;4997650;28;20278;-71
2022/03/23 10:36:39;;;;;;;37.05;26.33;;;19.30;38.50;;;;;;4998514;28;20748;-70
2022/03/23 10:39:16;;;;;;;40.17;26.30;;;19.50;38.40;;;;;;5003871;28;20545;-72
2022/03/23 10:41:42;;;;;;;42.42;26.48;;;19.40;39.10;;;;;;4999240;28;20469;-71
2022/03/23 10:44:18;;;;;;;41.28;27.73;;;19.40;38.30;;;;;;5000396;28;20048;-72
2022/03/23 10:46:44;;;;;;;35.22;25.95;;;19.50;37.70;;;;;;4999693;28;20050;-72
2022/03/23 10:49:11;;;;;;;34.53;24.80;;;19.60;36.70;;;;;;4993896;28;20513;-73
2022/03/23 10:51:38;;;;;;;33.03;22.85;;;19.70;36.20;;;;;;4999465;28;20073;-72
2022/03/23 10:54:33;;;;;;;37.10;23.13;;;19.70;35.30;;;;;;4990845;28;20177;-70
2022/03/23 10:56:59;;;;;;;34.28;23.35;;;19.80;35.70;;;;;;4975302;28;20045;-71
2022/03/23 10:59:28;;;;;;;40.05;22.73;;;19.90;35.90;;;;;;5002111;28;20042;-73
2022/03/23 11:01:59;;;;;;;33.28;23.63;;;20.00;35.60;;;;;;5002970;28;20478;-71
2022/03/23 11:04:46;;;;;;;30.55;22.83;;;19.80;35.10;;;;;;5000763;28;20046;-72
2022/03/23 11:07:35;;;;;;;30.55;20.02;;;19.90;35.40;;;;;;4999375;28;20053;-71
2022/03/23 11:15:47;;;;;;;31.83;20.13;;;20.20;33.70;;;;;;5005490;28;20101;-72
2022/03/23 11:18:21;;;;;;;28.30;19.20;;;20.30;33.60;;;;;;4998219;28;20057;-70
2022/03/23 11:20:53;;;;;;;28.63;20.25;;;20.30;34.00;;;;;;4995001;28;20034;-71
2022/03/23 11:23:25;;;;;;;25.10;17.30;;;20.40;32.60;;;;;;4980562;28;20429;-71
2022/03/23 11:26:00;;;;;;;27.15;17.60;;;20.60;32.80;;;;;;4983500;28;20049;-71
2022/03/23 11:28:37;;;;;;;26.70;18.35;;;20.60;31.80;;;;;;4997707;28;20401;-70
2022/03/23 11:31:06;;;;;;;22.80;17.17;;;20.60;31.70;;;;;;4998846;28;20030;-73
2022/03/23 11:33:34;;;;;;;22.45;15.75;;;20.70;32.10;;;;;;5003382;28;20042;-73
2022/03/23 11:36:01;;;;;;;21.35;15.60;;;20.70;32.40;;;;;;4999552;28;20048;-71
2022/03/23 11:38:27;;;;;;;23.52;15.90;;;20.80;31.90;;;;;;4995288;28;20176;-71
2022/03/23 11:40:54;;;;;;;23.08;16.80;;;20.80;31.20;;;;;;4998887;28;20513;-70
2022/03/23 11:43:22;;;;;;;24.33;18.10;;;20.70;31.90;;;;;;4980844;28;20362;-71
2022/03/23 11:45:51;;;;;;;21.25;16.23;;;20.80;31.60;;;;;;5000928;28;20049;-73
2022/03/23 11:48:23;;;;;;;23.15;16.40;;;20.80;31.90;;;;;;5000172;28;20037;-72
2022/03/23 11:51:11;;;;;;;23.52;16.20;;;20.50;31.60;;;;;;4994227;28;20034;-71
2022/03/23 11:53:57;;;;;;;22.23;15.75;;;20.30;31.70;;;;;;4996949;28;20477;-72
2022/03/23 11:56:28;;;;;;;23.45;16.70;;;20.50;31.90;;;;;;4998015;28;20048;-73
2022/03/23 11:58:53;;;;;;;21.13;16.17;;;20.70;31.60;;;;;;5002153;28;20496;-72
2022/03/23 12:01:20;;;;;;;26.48;17.90;;;20.90;31.40;;;;;;4981526;28;20038;-73
2022/03/23 12:03:50;;;;;;;24.00;17.30;;;20.80;32.60;;;;;;4991341;28;20113;-73
2022/03/23 12:06:19;;;;;;;25.05;17.45;;;21.00;31.60;;;;;;4997876;28;20091;-72
2022/03/23 12:08:50;;;;;;;26.33;18.55;;;21.10;31.60;;;;;;4997308;28;20296;-73
2022/03/23 12:11:49;;;;;;;25.17;18.70;;;21.20;31.90;;;;;;4995726;28;20038;-72
2022/03/23 12:14:24;;;;;;;19.77;15.85;;;21.10;32.40;;;;;;4997496;28;20124;-73
2022/03/23 12:16:50;;;;;;;22.50;17.23;;;21.00;31.10;;;;;;4992256;28;20133;-74
2022/03/23 12:19:28;;;;;;;22.88;16.23;;;21.00;30.20;;;;;;4991917;28;20129;-72
2022/03/23 12:22:46;;;;;;;25.75;17.38;;;21.10;31.60;;;;;;4991964;28;20089;-72
2022/03/23 12:25:23;;;;;;;20.83;16.13;;;21.10;31.50;;;;;;4975124;28;20038;-73
2022/03/23 12:28:00;;;;;;;25.50;16.90;;;20.90;32.00;;;;;;4994535;28;20045;-73
2022/03/23 12:30:26;;;;;;;22.95;13.60;;;21.10;31.30;;;;;;5003941;28;20052;-74
2022/03/23 12:32:56;;;;;;;16.02;11.15;;;21.10;30.10;;;;;;4991102;28;20323;-73
2022/03/23 12:35:33;;;;;;;13.85;9.93;;;21.10;28.50;;;;;;5003849;28;20045;-72
2022/03/23 12:38:01;;;;;;;16.42;12.43;;;21.30;27.20;;;;;;5001736;28;20046;-72
2022/03/23 12:40:47;;;;;;;17.77;13.52;;;21.30;27.10;;;;;;5006580;28;20030;-72
2022/03/23 12:43:40;;;;;;;21.58;11.70;;;21.40;28.70;;;;;;5004669;28;20049;-72
2022/03/23 12:46:18;;;;;;;15.30;9.85;;;21.50;28.20;;;;;;5004608;28;20121;-73
2022/03/23 12:57:52;;;;;;;18.13;11.40;;;21.50;25.00;;;;;;4996035;28;20038;-73
2022/03/23 13:00:49;;;;;;;14.15;10.13;;;21.40;26.70;;;;;;4996758;28;20090;-73
2022/03/23 13:03:18;;;;;;;13.98;10.25;;;21.10;26.00;;;;;;5003636;28;20141;-72
2022/03/23 13:05:59;;;;;;;14.88;10.40;;;21.10;25.20;;;;;;5006707;28;20069;-73